sensor_id;sensor_type;location;lat;lon;timestamp;P1;durP1;ratioP1;P2;durP2;ratioP2
22166;SDS011;11249;52.468;13.776;2022-08-20T00:00:43;22.45;;;17.65;;
22166;SDS011;11249;52.468;13.776;2022-08-20T00:03:29;18.42;;;16.52;;
22166;SDS011;11249;52.468;13.776;2022-08-20T00:05:59;19.65;;;17.67;;
22166;SDS011;11249;52.468;13.776;2022-08-20T00:08:35;20.65;;;18.80;;
22166;SDS011;11249;52.468;13.776;2022-08-20T00:11:05;21.95;;;17.65;;
22166;SDS011;11249;52.468;13.776;2022-08-20T00:13:44;19.88;;;17.95;;
22166;SDS011;11249;52.468;13.776;2022-08-20T00:16:20;21.00;;;18.80;;
22166;SDS011;11249;52.468;13.776;2022-08-20T00:18:54;20.20;;;18.20;;
22166;SDS011;11249;52.468;13.776;2022-08-20T00:21:28;16.50;;;14.75;;
22166;SDS011;11249;52.468;13.776;2022-08-20T00:23:56;20.00;;;18.00;;
22166;SDS011;11249;52.468;13.776;2022-08-20T00:26:23;19.83;;;17.92;;
22166;SDS011;11249;52.468;13.776;2022-08-20T00:28:56;19.30;;;17.50;;
22166;SDS011;11249;52.468;13.776;2022-08-20T00:31:23;20.20;;;16.63;;
22166;SDS011;11249;52.468;13.776;2022-08-20T00:33:50;19.63;;;17.55;;
22166;SDS011;11249;52.468;13.776;2022-08-20T00:36:23;20.63;;;18.50;;
22166;SDS011;11249;52.468;13.776;2022-08-20T00:38:58;19.65;;;17.65;;
22166;SDS011;11249;52.468;13.776;2022-08-20T00:41:31;19.23;;;17.33;;
22166;SDS011;11249;52.468;13.776;2022-08-20T00:46:40;19.58;;;16.98;;
22166;SDS011;11249;52.468;13.776;2022-08-20T00:49:07;19.05;;;17.23;;
22166;SDS011;11249;52.468;13.776;2022-08-20T00:51:40;17.45;;;15.82;;
22166;SDS011;11249;52.468;13.776;2022-08-20T00:57:14;17.83;;;16.17;;
22166;SDS011;11249;52.468;13.776;2022-08-20T01:00:28;15.27;;;13.98;;
22166;SDS011;11249;52.468;13.776;2022-08-20T01:02:59;16.55;;;15.05;;
22166;SDS011;11249;52.468;13.776;2022-08-20T01:05:34;16.85;;;15.23;;
22166;SDS011;11249;52.468;13.776;2022-08-20T01:08:12;16.85;;;15.05;;
22166;SDS011;11249;52.468;13.776;2022-08-20T01:10:49;17.45;;;15.73;;
22166;SDS011;11249;52.468;13.776;2022-08-20T01:15:55;18.63;;;16.83;;
22166;SDS011;11249;52.468;13.776;2022-08-20T01:18:23;17.40;;;15.73;;
22166;SDS011;11249;52.468;13.776;2022-08-20T01:23:49;17.17;;;15.50;;
22166;SDS011;11249;52.468;13.776;2022-08-20T01:26:36;15.13;;;13.82;;
22166;SDS011;11249;52.468;13.776;2022-08-20T01:29:13;15.95;;;14.35;;
22166;SDS011;11249;52.468;13.776;2022-08-20T01:31:50;17.60;;;15.90;;
22166;SDS011;11249;52.468;13.776;2022-08-20T01:34:17;17.63;;;15.88;;
22166;SDS011;11249;52.468;13.776;2022-08-20T01:36:53;18.33;;;16.42;;
22166;SDS011;11249;52.468;13.776;2022-08-20T01:39:25;21.48;;;19.42;;
22166;SDS011;11249;52.468;13.776;2022-08-20T01:44:43;20.42;;;18.35;;
22166;SDS011;11249;52.468;13.776;2022-08-20T01:47:21;19.23;;;17.33;;
22166;SDS011;11249;52.468;13.776;2022-08-20T01:50:09;17.85;;;16.10;;
22166;SDS011;11249;52.468;13.776;2022-08-20T01:53:05;16.30;;;14.73;;
22166;SDS011;11249;52.468;13.776;2022-08-20T01:55:49;15.15;;;13.75;;
22166;SDS011;11249;52.468;13.776;2022-08-20T01:58:22;17.35;;;15.60;;
22166;SDS011;11249;52.468;13.776;2022-08-20T02:00:56;16.05;;;14.07;;
22166;SDS011;11249;52.468;13.776;2022-08-20T02:03:30;15.48;;;14.05;;
22166;SDS011;11249;52.468;13.776;2022-08-20T02:06:04;15.43;;;13.93;;
22166;SDS011;11249;52.468;13.776;2022-08-20T02:08:38;16.17;;;14.27;;
22166;SDS011;11249;52.468;13.776;2022-08-20T02:11:05;15.55;;;14.13;;
22166;SDS011;11249;52.468;13.776;2022-08-20T02:13:45;14.75;;;13.45;;
22166;SDS011;11249;52.468;13.776;2022-08-20T02:16:14;15.85;;;14.35;;
22166;SDS011;11249;52.468;13.776;2022-08-20T02:18:48;15.73;;;14.30;;
22166;SDS011;11249;52.468;13.776;2022-08-20T02:21:22;18.15;;;15.43;;
22166;SDS011;11249;52.468;13.776;2022-08-20T02:26:34;16.02;;;14.63;;
22166;SDS011;11249;52.468;13.776;2022-08-20T02:29:06;17.90;;;16.10;;
22166;SDS011;11249;52.468;13.776;2022-08-20T02:31:42;17.73;;;16.02;;
22166;SDS011;11249;52.468;13.776;2022-08-20T02:34:29;16.33;;;14.80;;
22166;SDS011;11249;52.468;13.776;2022-08-20T02:37:04;16.90;;;15.27;;
22166;SDS011;11249;52.468;13.776;2022-08-20T02:39:32;15.68;;;14.27;;
22166;SDS011;11249;52.468;13.776;2022-08-20T02:42:05;15.98;;;14.57;;
22166;SDS011;11249;52.468;13.776;2022-08-20T02:44:32;18.35;;;16.30;;
22166;SDS011;11249;52.468;13.776;2022-08-20T02:47:05;17.60;;;15.98;;
22166;SDS011;11249;52.468;13.776;2022-08-20T02:49:39;18.05;;;16.27;;
22166;SDS011;11249;52.468;13.776;2022-08-20T02:52:12;17.05;;;15.48;;
22166;SDS011;11249;52.468;13.776;2022-08-20T02:54:38;17.98;;;16.15;;
22166;SDS011;11249;52.468;13.776;2022-08-20T02:57:13;17.60;;;15.93;;
22166;SDS011;11249;52.468;13.776;2022-08-20T02:59:48;21.75;;;18.92;;
22166;SDS011;11249;52.468;13.776;2022-08-20T03:02:23;22.88;;;20.27;;
22166;SDS011;11249;52.468;13.776;2022-08-20T03:04:50;23.88;;;21.35;;
22166;SDS011;11249;52.468;13.776;2022-08-20T03:07:23;32.85;;;26.42;;
22166;SDS011;11249;52.468;13.776;2022-08-20T03:09:50;34.08;;;26.80;;
22166;SDS011;11249;52.468;13.776;2022-08-20T03:12:16;30.80;;;25.75;;
22166;SDS011;11249;52.468;13.776;2022-08-20T03:14:50;34.55;;;27.52;;
22166;SDS011;11249;52.468;13.776;2022-08-20T03:17:17;39.58;;;30.42;;
22166;SDS011;11249;52.468;13.776;2022-08-20T03:19:43;37.45;;;29.02;;
22166;SDS011;11249;52.468;13.776;2022-08-20T03:22:16;32.10;;;28.10;;
22166;SDS011;11249;52.468;13.776;2022-08-20T03:24:43;36.60;;;29.73;;
22166;SDS011;11249;52.468;13.776;2022-08-20T03:27:19;37.35;;;30.98;;
22166;SDS011;11249;52.468;13.776;2022-08-20T03:29:51;40.40;;;32.42;;
22166;SDS011;11249;52.468;13.776;2022-08-20T03:32:25;41.22;;;33.50;;
22166;SDS011;11249;52.468;13.776;2022-08-20T03:34:52;34.88;;;27.67;;
22166;SDS011;11249;52.468;13.776;2022-08-20T03:37:19;39.38;;;32.03;;
22166;SDS011;11249;52.468;13.776;2022-08-20T03:39:52;36.78;;;30.90;;
22166;SDS011;11249;52.468;13.776;2022-08-20T03:42:25;38.72;;;29.63;;
22166;SDS011;11249;52.468;13.776;2022-08-20T03:44:52;36.63;;;31.02;;
22166;SDS011;11249;52.468;13.776;2022-08-20T03:47:26;36.60;;;28.77;;
22166;SDS011;11249;52.468;13.776;2022-08-20T03:49:57;34.00;;;28.95;;
22166;SDS011;11249;52.468;13.776;2022-08-20T03:52:31;35.22;;;28.85;;
22166;SDS011;11249;52.468;13.776;2022-08-20T03:55:05;33.05;;;28.65;;
22166;SDS011;11249;52.468;13.776;2022-08-20T03:57:43;31.65;;;28.00;;
22166;SDS011;11249;52.468;13.776;2022-08-20T04:00:27;33.15;;;27.85;;
22166;SDS011;11249;52.468;13.776;2022-08-20T04:03:08;29.58;;;26.25;;
22166;SDS011;11249;52.468;13.776;2022-08-20T04:05:36;31.02;;;27.73;;
22166;SDS011;11249;52.468;13.776;2022-08-20T04:08:10;30.23;;;26.73;;
22166;SDS011;11249;52.468;13.776;2022-08-20T04:10:49;31.85;;;27.17;;
22166;SDS011;11249;52.468;13.776;2022-08-20T04:13:17;32.05;;;27.95;;
22166;SDS011;11249;52.468;13.776;2022-08-20T04:15:52;32.38;;;27.00;;
22166;SDS011;11249;52.468;13.776;2022-08-20T04:18:23;29.60;;;26.45;;
22166;SDS011;11249;52.468;13.776;2022-08-20T04:20:57;31.75;;;28.10;;
22166;SDS011;11249;52.468;13.776;2022-08-20T04:23:24;30.95;;;27.65;;
22166;SDS011;11249;52.468;13.776;2022-08-20T04:25:57;32.75;;;27.10;;
22166;SDS011;11249;52.468;13.776;2022-08-20T04:28:30;32.28;;;27.75;;
22166;SDS011;11249;52.468;13.776;2022-08-20T04:30:59;33.30;;;28.27;;
22166;SDS011;11249;52.468;13.776;2022-08-20T04:33:26;31.98;;;26.98;;
22166;SDS011;11249;52.468;13.776;2022-08-20T04:36:03;30.65;;;27.45;;
22166;SDS011;11249;52.468;13.776;2022-08-20T04:38:31;33.47;;;27.70;;
22166;SDS011;11249;52.468;13.776;2022-08-20T04:41:16;34.17;;;28.85;;
22166;SDS011;11249;52.468;13.776;2022-08-20T04:43:51;34.25;;;27.58;;
22166;SDS011;11249;52.468;13.776;2022-08-20T04:46:20;32.67;;;28.40;;
22166;SDS011;11249;52.468;13.776;2022-08-20T04:48:49;38.10;;;29.25;;
22166;SDS011;11249;52.468;13.776;2022-08-20T04:51:29;32.15;;;27.33;;
22166;SDS011;11249;52.468;13.776;2022-08-20T04:54:10;33.25;;;26.83;;
22166;SDS011;11249;52.468;13.776;2022-08-20T04:56:39;32.22;;;27.33;;
22166;SDS011;11249;52.468;13.776;2022-08-20T04:59:12;34.58;;;30.60;;
22166;SDS011;11249;52.468;13.776;2022-08-20T05:01:39;33.92;;;29.10;;
22166;SDS011;11249;52.468;13.776;2022-08-20T05:04:13;31.17;;;26.45;;
22166;SDS011;11249;52.468;13.776;2022-08-20T05:06:40;36.47;;;29.08;;
22166;SDS011;11249;52.468;13.776;2022-08-20T05:09:07;36.72;;;28.77;;
22166;SDS011;11249;52.468;13.776;2022-08-20T05:11:41;31.33;;;26.98;;
22166;SDS011;11249;52.468;13.776;2022-08-20T05:14:15;33.30;;;28.13;;
22166;SDS011;11249;52.468;13.776;2022-08-20T05:16:42;31.42;;;27.83;;
22166;SDS011;11249;52.468;13.776;2022-08-20T05:19:09;32.53;;;28.17;;
22166;SDS011;11249;52.468;13.776;2022-08-20T05:21:44;33.22;;;27.67;;
22166;SDS011;11249;52.468;13.776;2022-08-20T05:24:11;32.55;;;28.63;;
22166;SDS011;11249;52.468;13.776;2022-08-20T05:26:38;32.40;;;27.38;;
22166;SDS011;11249;52.468;13.776;2022-08-20T05:29:11;32.40;;;26.98;;
22166;SDS011;11249;52.468;13.776;2022-08-20T05:31:38;33.30;;;27.23;;
22166;SDS011;11249;52.468;13.776;2022-08-20T05:34:06;36.83;;;28.05;;
22166;SDS011;11249;52.468;13.776;2022-08-20T05:36:43;30.63;;;26.77;;
22166;SDS011;11249;52.468;13.776;2022-08-20T05:39:25;30.45;;;25.13;;
22166;SDS011;11249;52.468;13.776;2022-08-20T05:42:02;33.65;;;27.80;;
22166;SDS011;11249;52.468;13.776;2022-08-20T05:44:29;29.27;;;26.17;;
22166;SDS011;11249;52.468;13.776;2022-08-20T05:46:56;29.48;;;26.20;;
22166;SDS011;11249;52.468;13.776;2022-08-20T05:49:29;31.38;;;27.42;;
22166;SDS011;11249;52.468;13.776;2022-08-20T05:52:03;30.52;;;27.27;;
22166;SDS011;11249;52.468;13.776;2022-08-20T05:54:37;27.70;;;24.80;;
22166;SDS011;11249;52.468;13.776;2022-08-20T05:57:04;27.67;;;24.88;;
22166;SDS011;11249;52.468;13.776;2022-08-20T05:59:38;30.75;;;27.45;;
22166;SDS011;11249;52.468;13.776;2022-08-20T06:02:05;31.05;;;27.25;;
22166;SDS011;11249;52.468;13.776;2022-08-20T06:04:58;30.67;;;26.38;;
22166;SDS011;11249;52.468;13.776;2022-08-20T06:07:25;30.02;;;26.90;;
22166;SDS011;11249;52.468;13.776;2022-08-20T06:09:52;30.65;;;27.40;;
22166;SDS011;11249;52.468;13.776;2022-08-20T06:12:25;34.72;;;27.98;;
22166;SDS011;11249;52.468;13.776;2022-08-20T06:14:58;32.90;;;27.88;;
22166;SDS011;11249;52.468;13.776;2022-08-20T06:17:25;31.13;;;27.25;;
22166;SDS011;11249;52.468;13.776;2022-08-20T06:20:05;30.80;;;27.55;;
22166;SDS011;11249;52.468;13.776;2022-08-20T06:22:41;35.00;;;27.73;;
22166;SDS011;11249;52.468;13.776;2022-08-20T06:25:14;34.17;;;29.85;;
22166;SDS011;11249;52.468;13.776;2022-08-20T06:27:42;36.15;;;31.83;;
22166;SDS011;11249;52.468;13.776;2022-08-20T06:30:15;35.03;;;31.23;;
22166;SDS011;11249;52.468;13.776;2022-08-20T06:32:43;34.92;;;30.17;;
22166;SDS011;11249;52.468;13.776;2022-08-20T06:35:17;34.67;;;30.92;;
22166;SDS011;11249;52.468;13.776;2022-08-20T06:37:45;35.70;;;31.73;;
22166;SDS011;11249;52.468;13.776;2022-08-20T06:40:16;35.97;;;30.60;;
22166;SDS011;11249;52.468;13.776;2022-08-20T06:42:51;34.83;;;30.13;;
22166;SDS011;11249;52.468;13.776;2022-08-20T06:45:19;34.50;;;30.45;;
22166;SDS011;11249;52.468;13.776;2022-08-20T06:47:58;35.67;;;31.37;;
22166;SDS011;11249;52.468;13.776;2022-08-20T06:50:30;33.05;;;29.45;;
22166;SDS011;11249;52.468;13.776;2022-08-20T06:53:14;36.35;;;31.00;;
22166;SDS011;11249;52.468;13.776;2022-08-20T06:55:56;33.53;;;29.90;;
22166;SDS011;11249;52.468;13.776;2022-08-20T06:58:24;36.60;;;32.35;;
22166;SDS011;11249;52.468;13.776;2022-08-20T07:01:07;38.75;;;33.08;;
22166;SDS011;11249;52.468;13.776;2022-08-20T07:03:41;30.88;;;26.75;;
22166;SDS011;11249;52.468;13.776;2022-08-20T07:06:21;35.10;;;31.35;;
22166;SDS011;11249;52.468;13.776;2022-08-20T07:08:50;37.35;;;32.22;;
22166;SDS011;11249;52.468;13.776;2022-08-20T07:11:23;38.45;;;31.88;;
22166;SDS011;11249;52.468;13.776;2022-08-20T07:16:22;34.72;;;30.85;;
22166;SDS011;11249;52.468;13.776;2022-08-20T07:18:55;37.40;;;33.20;;
22166;SDS011;11249;52.468;13.776;2022-08-20T07:21:23;37.60;;;32.10;;
22166;SDS011;11249;52.468;13.776;2022-08-20T07:23:50;37.55;;;33.13;;
22166;SDS011;11249;52.468;13.776;2022-08-20T07:26:24;44.35;;;36.13;;
22166;SDS011;11249;52.468;13.776;2022-08-20T07:28:51;39.78;;;32.53;;
22166;SDS011;11249;52.468;13.776;2022-08-20T07:31:18;37.70;;;33.65;;
22166;SDS011;11249;52.468;13.776;2022-08-20T07:34:13;40.08;;;33.42;;
22166;SDS011;11249;52.468;13.776;2022-08-20T07:36:39;42.38;;;33.90;;
22166;SDS011;11249;52.468;13.776;2022-08-20T07:39:13;33.83;;;29.63;;
22166;SDS011;11249;52.468;13.776;2022-08-20T07:41:47;43.25;;;36.10;;
22166;SDS011;11249;52.468;13.776;2022-08-20T07:44:28;41.55;;;34.72;;
22166;SDS011;11249;52.468;13.776;2022-08-20T07:47:02;42.40;;;35.58;;
22166;SDS011;11249;52.468;13.776;2022-08-20T07:49:38;37.83;;;33.40;;
22166;SDS011;11249;52.468;13.776;2022-08-20T07:52:18;38.03;;;34.05;;
22166;SDS011;11249;52.468;13.776;2022-08-20T07:54:58;37.88;;;32.80;;
22166;SDS011;11249;52.468;13.776;2022-08-20T07:57:31;38.13;;;32.05;;
22166;SDS011;11249;52.468;13.776;2022-08-20T08:00:05;37.60;;;33.50;;
22166;SDS011;11249;52.468;13.776;2022-08-20T08:02:34;40.60;;;33.87;;
22166;SDS011;11249;52.468;13.776;2022-08-20T08:05:07;35.88;;;32.00;;
22166;SDS011;11249;52.468;13.776;2022-08-20T08:07:35;39.08;;;34.88;;
22166;SDS011;11249;52.468;13.776;2022-08-20T08:10:11;36.85;;;32.67;;
22166;SDS011;11249;52.468;13.776;2022-08-20T08:12:44;42.30;;;35.08;;
22166;SDS011;11249;52.468;13.776;2022-08-20T08:15:23;39.85;;;35.58;;
22166;SDS011;11249;52.468;13.776;2022-08-20T08:17:54;39.42;;;35.10;;
22166;SDS011;11249;52.468;13.776;2022-08-20T08:20:36;45.05;;;35.88;;
22166;SDS011;11249;52.468;13.776;2022-08-20T08:23:13;42.45;;;34.83;;
22166;SDS011;11249;52.468;13.776;2022-08-20T08:25:57;39.28;;;35.05;;
22166;SDS011;11249;52.468;13.776;2022-08-20T08:28:24;45.95;;;35.00;;
22166;SDS011;11249;52.468;13.776;2022-08-20T08:31:01;42.50;;;35.90;;
22166;SDS011;11249;52.468;13.776;2022-08-20T08:33:29;43.33;;;37.28;;
22166;SDS011;11249;52.468;13.776;2022-08-20T08:36:07;38.40;;;34.38;;
22166;SDS011;11249;52.468;13.776;2022-08-20T08:38:37;39.78;;;35.33;;
22166;SDS011;11249;52.468;13.776;2022-08-20T08:41:19;41.42;;;35.25;;
22166;SDS011;11249;52.468;13.776;2022-08-20T08:44:16;42.03;;;36.03;;
22166;SDS011;11249;52.468;13.776;2022-08-20T08:46:57;36.60;;;32.67;;
22166;SDS011;11249;52.468;13.776;2022-08-20T08:49:45;41.22;;;36.83;;
22166;SDS011;11249;52.468;13.776;2022-08-20T08:52:20;42.55;;;34.35;;
22166;SDS011;11249;52.468;13.776;2022-08-20T08:55:01;41.65;;;35.53;;
22166;SDS011;11249;52.468;13.776;2022-08-20T08:57:44;41.55;;;35.55;;
22166;SDS011;11249;52.468;13.776;2022-08-20T09:00:19;38.15;;;34.22;;
22166;SDS011;11249;52.468;13.776;2022-08-20T09:02:53;45.17;;;35.83;;
22166;SDS011;11249;52.468;13.776;2022-08-20T09:05:42;42.72;;;36.13;;
22166;SDS011;11249;52.468;13.776;2022-08-20T09:08:25;40.08;;;34.60;;
22166;SDS011;11249;52.468;13.776;2022-08-20T09:11:03;41.75;;;37.08;;
22166;SDS011;11249;52.468;13.776;2022-08-20T09:13:37;41.83;;;35.67;;
22166;SDS011;11249;52.468;13.776;2022-08-20T09:16:11;41.30;;;36.60;;
22166;SDS011;11249;52.468;13.776;2022-08-20T09:18:38;45.78;;;38.08;;
22166;SDS011;11249;52.468;13.776;2022-08-20T09:21:06;39.35;;;33.72;;
22166;SDS011;11249;52.468;13.776;2022-08-20T09:23:39;40.70;;;34.80;;
22166;SDS011;11249;52.468;13.776;2022-08-20T09:26:07;45.38;;;35.78;;
22166;SDS011;11249;52.468;13.776;2022-08-20T09:28:40;44.08;;;35.85;;
22166;SDS011;11249;52.468;13.776;2022-08-20T09:31:17;41.08;;;35.63;;
22166;SDS011;11249;52.468;13.776;2022-08-20T09:33:51;46.28;;;37.50;;
22166;SDS011;11249;52.468;13.776;2022-08-20T09:36:18;39.40;;;34.88;;
22166;SDS011;11249;52.468;13.776;2022-08-20T09:38:57;41.35;;;36.03;;
22166;SDS011;11249;52.468;13.776;2022-08-20T09:41:24;43.28;;;37.97;;
22166;SDS011;11249;52.468;13.776;2022-08-20T09:43:51;41.95;;;37.55;;
22166;SDS011;11249;52.468;13.776;2022-08-20T09:46:24;40.95;;;35.58;;
22166;SDS011;11249;52.468;13.776;2022-08-20T09:48:52;46.55;;;38.15;;
22166;SDS011;11249;52.468;13.776;2022-08-20T09:51:33;42.67;;;36.88;;
22166;SDS011;11249;52.468;13.776;2022-08-20T09:54:13;43.55;;;37.05;;
22166;SDS011;11249;52.468;13.776;2022-08-20T09:56:46;44.00;;;37.53;;
22166;SDS011;11249;52.468;13.776;2022-08-20T09:59:13;41.13;;;35.28;;
22166;SDS011;11249;52.468;13.776;2022-08-20T10:01:41;43.50;;;37.83;;
22166;SDS011;11249;52.468;13.776;2022-08-20T10:04:14;38.10;;;34.05;;
22166;SDS011;11249;52.468;13.776;2022-08-20T10:06:41;37.95;;;33.55;;
22166;SDS011;11249;52.468;13.776;2022-08-20T10:09:08;40.83;;;36.40;;
22166;SDS011;11249;52.468;13.776;2022-08-20T10:11:41;43.90;;;37.42;;
22166;SDS011;11249;52.468;13.776;2022-08-20T10:14:14;41.92;;;35.28;;
22166;SDS011;11249;52.468;13.776;2022-08-20T10:16:41;43.60;;;37.20;;
22166;SDS011;11249;52.468;13.776;2022-08-20T10:19:14;40.58;;;36.17;;
22166;SDS011;11249;52.468;13.776;2022-08-20T10:21:41;43.35;;;37.00;;
22166;SDS011;11249;52.468;13.776;2022-08-20T10:24:08;46.38;;;37.53;;
22166;SDS011;11249;52.468;13.776;2022-08-20T10:26:41;40.42;;;36.00;;
22166;SDS011;11249;52.468;13.776;2022-08-20T10:29:08;39.42;;;35.20;;
22166;SDS011;11249;52.468;13.776;2022-08-20T10:31:41;41.50;;;36.92;;
22166;SDS011;11249;52.468;13.776;2022-08-20T10:34:15;45.53;;;37.90;;
22166;SDS011;11249;52.468;13.776;2022-08-20T10:36:42;46.22;;;37.50;;
22166;SDS011;11249;52.468;13.776;2022-08-20T10:39:09;41.45;;;35.22;;
22166;SDS011;11249;52.468;13.776;2022-08-20T10:41:42;39.70;;;35.38;;
22166;SDS011;11249;52.468;13.776;2022-08-20T10:44:09;40.75;;;36.45;;
22166;SDS011;11249;52.468;13.776;2022-08-20T10:46:36;43.00;;;38.25;;
22166;SDS011;11249;52.468;13.776;2022-08-20T10:49:09;40.40;;;36.03;;
22166;SDS011;11249;52.468;13.776;2022-08-20T10:51:37;42.13;;;36.38;;
22166;SDS011;11249;52.468;13.776;2022-08-20T10:54:19;41.08;;;36.67;;
22166;SDS011;11249;52.468;13.776;2022-08-20T10:56:52;37.75;;;33.08;;
22166;SDS011;11249;52.468;13.776;2022-08-20T10:59:19;37.67;;;33.58;;
22166;SDS011;11249;52.468;13.776;2022-08-20T11:01:45;38.72;;;34.28;;
22166;SDS011;11249;52.468;13.776;2022-08-20T11:04:18;39.80;;;34.35;;
22166;SDS011;11249;52.468;13.776;2022-08-20T11:06:45;43.92;;;36.38;;
22166;SDS011;11249;52.468;13.776;2022-08-20T11:09:18;40.70;;;36.20;;
22166;SDS011;11249;52.468;13.776;2022-08-20T11:11:45;40.20;;;35.90;;
22166;SDS011;11249;52.468;13.776;2022-08-20T11:14:18;39.05;;;33.83;;
22166;SDS011;11249;52.468;13.776;2022-08-20T11:16:51;36.03;;;32.05;;
22166;SDS011;11249;52.468;13.776;2022-08-20T11:19:24;35.28;;;30.30;;
22166;SDS011;11249;52.468;13.776;2022-08-20T11:21:51;35.92;;;32.03;;
22166;SDS011;11249;52.468;13.776;2022-08-20T11:24:24;33.58;;;29.70;;
22166;SDS011;11249;52.468;13.776;2022-08-20T11:26:51;34.88;;;30.90;;
22166;SDS011;11249;52.468;13.776;2022-08-20T11:29:18;36.63;;;31.75;;
22166;SDS011;11249;52.468;13.776;2022-08-20T11:31:59;36.05;;;31.77;;
22166;SDS011;11249;52.468;13.776;2022-08-20T11:34:25;34.70;;;28.92;;
22166;SDS011;11249;52.468;13.776;2022-08-20T11:36:52;34.83;;;31.05;;
22166;SDS011;11249;52.468;13.776;2022-08-20T11:39:25;32.67;;;29.20;;
22166;SDS011;11249;52.468;13.776;2022-08-20T11:41:59;34.15;;;30.10;;
22166;SDS011;11249;52.468;13.776;2022-08-20T11:44:46;30.48;;;27.23;;
22166;SDS011;11249;52.468;13.776;2022-08-20T11:47:20;33.03;;;28.05;;
22166;SDS011;11249;52.468;13.776;2022-08-20T11:50:00;32.50;;;27.40;;
22166;SDS011;11249;52.468;13.776;2022-08-20T11:52:37;30.27;;;26.98;;
22166;SDS011;11249;52.468;13.776;2022-08-20T11:55:11;31.77;;;28.40;;
22166;SDS011;11249;52.468;13.776;2022-08-20T11:57:55;32.03;;;27.98;;
22166;SDS011;11249;52.468;13.776;2022-08-20T12:00:29;27.40;;;24.52;;
22166;SDS011;11249;52.468;13.776;2022-08-20T12:03:04;26.40;;;23.52;;
22166;SDS011;11249;52.468;13.776;2022-08-20T12:05:34;25.25;;;22.65;;
22166;SDS011;11249;52.468;13.776;2022-08-20T12:08:12;24.25;;;21.75;;
22166;SDS011;11249;52.468;13.776;2022-08-20T12:10:53;22.25;;;19.90;;
22166;SDS011;11249;52.468;13.776;2022-08-20T12:13:31;22.15;;;19.90;;
22166;SDS011;11249;52.468;13.776;2022-08-20T12:16:14;22.13;;;19.75;;
22166;SDS011;11249;52.468;13.776;2022-08-20T12:18:48;21.48;;;19.10;;
22166;SDS011;11249;52.468;13.776;2022-08-20T12:21:15;22.30;;;19.98;;
22166;SDS011;11249;52.468;13.776;2022-08-20T12:23:48;21.65;;;19.38;;
22166;SDS011;11249;52.468;13.776;2022-08-20T12:26:15;20.05;;;17.95;;
22166;SDS011;11249;52.468;13.776;2022-08-20T12:28:48;21.45;;;19.17;;
22166;SDS011;11249;52.468;13.776;2022-08-20T12:31:15;19.15;;;17.20;;
22166;SDS011;11249;52.468;13.776;2022-08-20T12:33:41;23.33;;;18.25;;
22166;SDS011;11249;52.468;13.776;2022-08-20T12:36:14;20.45;;;18.33;;
22166;SDS011;11249;52.468;13.776;2022-08-20T12:38:47;18.83;;;17.13;;
22166;SDS011;11249;52.468;13.776;2022-08-20T12:41:20;18.55;;;16.55;;
22166;SDS011;11249;52.468;13.776;2022-08-20T12:43:54;18.17;;;16.33;;
22166;SDS011;11249;52.468;13.776;2022-08-20T12:46:21;17.45;;;15.60;;
22166;SDS011;11249;52.468;13.776;2022-08-20T12:48:48;19.02;;;15.82;;
22166;SDS011;11249;52.468;13.776;2022-08-20T12:51:21;15.32;;;13.73;;
22166;SDS011;11249;52.468;13.776;2022-08-20T12:54:01;13.82;;;12.43;;
22166;SDS011;11249;52.468;13.776;2022-08-20T12:56:28;13.88;;;12.55;;
22166;SDS011;11249;52.468;13.776;2022-08-20T12:59:01;12.98;;;11.70;;
22166;SDS011;11249;52.468;13.776;2022-08-20T13:01:28;13.18;;;10.82;;
22166;SDS011;11249;52.468;13.776;2022-08-20T13:04:01;12.25;;;10.63;;
22166;SDS011;11249;52.468;13.776;2022-08-20T13:06:28;11.85;;;10.68;;
22166;SDS011;11249;52.468;13.776;2022-08-20T13:08:55;11.52;;;10.32;;
22166;SDS011;11249;52.468;13.776;2022-08-20T13:11:28;10.07;;;9.10;;
22166;SDS011;11249;52.468;13.776;2022-08-20T13:14:01;10.43;;;9.40;;
22166;SDS011;11249;52.468;13.776;2022-08-20T13:16:28;8.77;;;7.97;;
22166;SDS011;11249;52.468;13.776;2022-08-20T13:19:02;9.70;;;8.70;;
22166;SDS011;11249;52.468;13.776;2022-08-20T13:21:35;9.80;;;8.90;;
22166;SDS011;11249;52.468;13.776;2022-08-20T13:24:02;10.00;;;9.00;;
22166;SDS011;11249;52.468;13.776;2022-08-20T13:26:29;9.18;;;8.15;;
22166;SDS011;11249;52.468;13.776;2022-08-20T13:29:03;8.73;;;7.88;;
22166;SDS011;11249;52.468;13.776;2022-08-20T13:31:30;9.02;;;8.23;;
22166;SDS011;11249;52.468;13.776;2022-08-20T13:33:56;7.88;;;7.07;;
22166;SDS011;11249;52.468;13.776;2022-08-20T13:36:29;8.55;;;7.75;;
22166;SDS011;11249;52.468;13.776;2022-08-20T13:38:56;10.05;;;7.57;;
22166;SDS011;11249;52.468;13.776;2022-08-20T13:41:22;9.73;;;8.45;;
22166;SDS011;11249;52.468;13.776;2022-08-20T13:43:56;8.32;;;7.28;;
22166;SDS011;11249;52.468;13.776;2022-08-20T13:46:23;8.02;;;7.30;;
22166;SDS011;11249;52.468;13.776;2022-08-20T13:48:56;8.63;;;7.60;;
22166;SDS011;11249;52.468;13.776;2022-08-20T13:51:23;8.43;;;6.68;;
22166;SDS011;11249;52.468;13.776;2022-08-20T13:53:58;7.75;;;6.88;;
22166;SDS011;11249;52.468;13.776;2022-08-20T13:56:35;7.70;;;7.00;;
22166;SDS011;11249;52.468;13.776;2022-08-20T13:59:10;8.38;;;7.57;;
22166;SDS011;11249;52.468;13.776;2022-08-20T14:01:37;7.72;;;7.05;;
22166;SDS011;11249;52.468;13.776;2022-08-20T14:04:10;7.50;;;6.90;;
22166;SDS011;11249;52.468;13.776;2022-08-20T14:06:37;12.05;;;8.00;;
22166;SDS011;11249;52.468;13.776;2022-08-20T14:09:04;9.00;;;8.10;;
22166;SDS011;11249;52.468;13.776;2022-08-20T14:11:37;8.30;;;7.50;;
22166;SDS011;11249;52.468;13.776;2022-08-20T14:14:04;9.40;;;8.50;;
22166;SDS011;11249;52.468;13.776;2022-08-20T14:16:37;9.82;;;8.93;;
22166;SDS011;11249;52.468;13.776;2022-08-20T14:19:11;10.50;;;8.90;;
22166;SDS011;11249;52.468;13.776;2022-08-20T14:21:44;10.25;;;9.30;;
22166;SDS011;11249;52.468;13.776;2022-08-20T14:24:11;12.65;;;9.90;;
22166;SDS011;11249;52.468;13.776;2022-08-20T14:26:37;10.52;;;9.63;;
22166;SDS011;11249;52.468;13.776;2022-08-20T14:29:10;13.85;;;11.20;;
22166;SDS011;11249;52.468;13.776;2022-08-20T14:31:37;12.38;;;11.10;;
22166;SDS011;11249;52.468;13.776;2022-08-20T14:34:10;13.93;;;11.68;;
22166;SDS011;11249;52.468;13.776;2022-08-20T14:36:43;12.57;;;11.20;;
22166;SDS011;11249;52.468;13.776;2022-08-20T14:39:16;13.98;;;12.27;;
22166;SDS011;11249;52.468;13.776;2022-08-20T14:41:45;14.32;;;11.65;;
22166;SDS011;11249;52.468;13.776;2022-08-20T14:44:12;12.73;;;11.07;;
22166;SDS011;11249;52.468;13.776;2022-08-20T14:46:45;13.25;;;12.05;;
22166;SDS011;11249;52.468;13.776;2022-08-20T14:49:12;14.63;;;13.13;;
22166;SDS011;11249;52.468;13.776;2022-08-20T14:51:52;15.18;;;13.05;;
22166;SDS011;11249;52.468;13.776;2022-08-20T14:54:33;13.98;;;12.50;;
22166;SDS011;11249;52.468;13.776;2022-08-20T14:57:06;15.68;;;14.10;;
22166;SDS011;11249;52.468;13.776;2022-08-20T14:59:40;15.80;;;14.07;;
22166;SDS011;11249;52.468;13.776;2022-08-20T15:02:08;13.50;;;11.98;;